sensor_id;sensor_type;location;lat;lon;timestamp;temperature;humidity
6375;DHT22;35400;45.472;-122.822;2023-03-11T00:00:53;9.50;99.90
6375;DHT22;35400;45.472;-122.822;2023-03-11T00:03:20;9.50;99.90
6375;DHT22;35400;45.472;-122.822;2023-03-11T00:05:54;9.40;99.90
6375;DHT22;35400;45.472;-122.822;2023-03-11T00:08:23;9.40;99.90
6375;DHT22;35400;45.472;-122.822;2023-03-11T00:10:58;9.40;99.90
6375;DHT22;35400;45.472;-122.822;2023-03-11T00:13:26;9.30;99.90
6375;DHT22;35400;45.472;-122.822;2023-03-11T00:15:54;9.30;99.90
6375;DHT22;35400;45.472;-122.822;2023-03-11T00:18:23;9.30;99.90
6375;DHT22;35400;45.472;-122.822;2023-03-11T00:20:56;9.20;99.90
6375;DHT22;35400;45.472;-122.822;2023-03-11T00:23:24;9.20;99.90
6375;DHT22;35400;45.472;-122.822;2023-03-11T00:25:51;9.10;99.90
6375;DHT22;35400;45.472;-122.822;2023-03-11T00:28:18;9.10;99.90
6375;DHT22;35400;45.472;-122.822;2023-03-11T00:30:47;9.00;99.90
6375;DHT22;35400;45.472;-122.822;2023-03-11T00:33:15;9.00;99.90
6375;DHT22;35400;45.472;-122.822;2023-03-11T00:35:42;9.00;99.90
6375;DHT22;35400;45.472;-122.822;2023-03-11T00:38:12;9.00;99.90
6375;DHT22;35400;45.472;-122.822;2023-03-11T00:40:41;9.00;99.90
6375;DHT22;35400;45.472;-122.822;2023-03-11T00:43:08;9.00;99.90
6375;DHT22;35400;45.472;-122.822;2023-03-11T00:45:35;8.90;99.90
6375;DHT22;35400;45.472;-122.822;2023-03-11T00:48:03;8.90;99.90
6375;DHT22;35400;45.472;-122.822;2023-03-11T00:50:33;8.90;99.90
6375;DHT22;35400;45.472;-122.822;2023-03-11T00:53:00;8.80;99.90
6375;DHT22;35400;45.472;-122.822;2023-03-11T00:55:30;8.80;99.90
6375;DHT22;35400;45.472;-122.822;2023-03-11T00:58:02;8.80;99.90
6375;DHT22;35400;45.472;-122.822;2023-03-11T01:00:37;8.70;99.90
6375;DHT22;35400;45.472;-122.822;2023-03-11T01:03:05;8.70;99.90
6375;DHT22;35400;45.472;-122.822;2023-03-11T01:05:33;8.60;99.90
6375;DHT22;35400;45.472;-122.822;2023-03-11T01:08:03;8.60;99.90
6375;DHT22;35400;45.472;-122.822;2023-03-11T01:10:32;8.60;99.90
6375;DHT22;35400;45.472;-122.822;2023-03-11T01:12:59;8.50;99.90
6375;DHT22;35400;45.472;-122.822;2023-03-11T01:15:30;8.50;99.90
6375;DHT22;35400;45.472;-122.822;2023-03-11T01:17:58;8.50;99.90
6375;DHT22;35400;45.472;-122.822;2023-03-11T01:20:25;8.50;99.90
6375;DHT22;35400;45.472;-122.822;2023-03-11T01:22:52;8.50;99.90
6375;DHT22;35400;45.472;-122.822;2023-03-11T01:25:22;8.40;99.90
6375;DHT22;35400;45.472;-122.822;2023-03-11T01:27:50;8.40;99.90
6375;DHT22;35400;45.472;-122.822;2023-03-11T01:30:22;8.40;99.90
6375;DHT22;35400;45.472;-122.822;2023-03-11T01:32:51;8.30;99.90
6375;DHT22;35400;45.472;-122.822;2023-03-11T01:35:19;8.30;99.90
6375;DHT22;35400;45.472;-122.822;2023-03-11T01:37:46;8.30;99.90
6375;DHT22;35400;45.472;-122.822;2023-03-11T01:40:20;8.30;99.90
6375;DHT22;35400;45.472;-122.822;2023-03-11T01:42:48;8.20;99.90
6375;DHT22;35400;45.472;-122.822;2023-03-11T01:45:39;8.20;99.90
6375;DHT22;35400;45.472;-122.822;2023-03-11T01:48:08;8.20;99.90
6375;DHT22;35400;45.472;-122.822;2023-03-11T01:50:43;8.10;99.90
6375;DHT22;35400;45.472;-122.822;2023-03-11T01:53:12;8.10;99.90
6375;DHT22;35400;45.472;-122.822;2023-03-11T01:55:42;8.10;99.90
6375;DHT22;35400;45.472;-122.822;2023-03-11T01:58:13;8.00;99.90
6375;DHT22;35400;45.472;-122.822;2023-03-11T02:00:42;8.00;99.90
6375;DHT22;35400;45.472;-122.822;2023-03-11T02:03:16;8.00;99.90
6375;DHT22;35400;45.472;-122.822;2023-03-11T02:05:44;7.90;99.90
6375;DHT22;35400;45.472;-122.822;2023-03-11T02:08:12;7.90;99.90
6375;DHT22;35400;45.472;-122.822;2023-03-11T02:10:41;7.90;99.90
6375;DHT22;35400;45.472;-122.822;2023-03-11T02:13:11;7.80;99.90
6375;DHT22;35400;45.472;-122.822;2023-03-11T02:15:38;7.80;99.90
6375;DHT22;35400;45.472;-122.822;2023-03-11T02:18:06;7.80;99.90
6375;DHT22;35400;45.472;-122.822;2023-03-11T02:23:41;7.70;99.90
6375;DHT22;35400;45.472;-122.822;2023-03-11T02:26:51;7.70;99.90
6375;DHT22;35400;45.472;-122.822;2023-03-11T02:29:17;7.60;99.90
6375;DHT22;35400;45.472;-122.822;2023-03-11T02:31:46;7.60;99.90
6375;DHT22;35400;45.472;-122.822;2023-03-11T02:34:20;7.60;99.90
6375;DHT22;35400;45.472;-122.822;2023-03-11T02:36:49;7.60;99.90
6375;DHT22;35400;45.472;-122.822;2023-03-11T02:39:27;7.50;99.90
6375;DHT22;35400;45.472;-122.822;2023-03-11T02:41:54;7.50;99.90
6375;DHT22;35400;45.472;-122.822;2023-03-11T02:44:21;7.50;99.90
6375;DHT22;35400;45.472;-122.822;2023-03-11T02:46:48;7.40;99.90
6375;DHT22;35400;45.472;-122.822;2023-03-11T02:49:15;7.40;99.90
6375;DHT22;35400;45.472;-122.822;2023-03-11T02:51:42;7.30;99.90
6375;DHT22;35400;45.472;-122.822;2023-03-11T02:54:09;7.20;99.90
6375;DHT22;35400;45.472;-122.822;2023-03-11T02:56:36;7.20;99.90
6375;DHT22;35400;45.472;-122.822;2023-03-11T02:59:03;7.10;99.90
6375;DHT22;35400;45.472;-122.822;2023-03-11T03:01:31;7.10;99.90
6375;DHT22;35400;45.472;-122.822;2023-03-11T03:03:58;7.00;99.90
6375;DHT22;35400;45.472;-122.822;2023-03-11T03:06:26;7.00;99.90
6375;DHT22;35400;45.472;-122.822;2023-03-11T03:08:54;6.90;99.90
6375;DHT22;35400;45.472;-122.822;2023-03-11T03:11:21;6.90;99.90
6375;DHT22;35400;45.472;-122.822;2023-03-11T03:13:48;6.90;99.90
6375;DHT22;35400;45.472;-122.822;2023-03-11T03:16:15;6.90;99.90
6375;DHT22;35400;45.472;-122.822;2023-03-11T03:18:41;6.80;99.90
6375;DHT22;35400;45.472;-122.822;2023-03-11T03:21:09;6.80;99.90
6375;DHT22;35400;45.472;-122.822;2023-03-11T03:23:36;6.80;99.90
6375;DHT22;35400;45.472;-122.822;2023-03-11T03:26:04;6.80;99.90
6375;DHT22;35400;45.472;-122.822;2023-03-11T03:28:34;6.70;99.90
6375;DHT22;35400;45.472;-122.822;2023-03-11T03:31:09;6.70;99.90
6375;DHT22;35400;45.472;-122.822;2023-03-11T03:33:37;6.70;99.90
6375;DHT22;35400;45.472;-122.822;2023-03-11T03:36:08;6.70;99.90
6375;DHT22;35400;45.472;-122.822;2023-03-11T03:38:42;6.60;99.90
6375;DHT22;35400;45.472;-122.822;2023-03-11T03:41:11;6.60;99.90
6375;DHT22;35400;45.472;-122.822;2023-03-11T03:43:40;6.60;99.90
6375;DHT22;35400;45.472;-122.822;2023-03-11T03:46:07;6.60;99.90
6375;DHT22;35400;45.472;-122.822;2023-03-11T03:48:39;6.60;99.90
6375;DHT22;35400;45.472;-122.822;2023-03-11T03:51:10;6.60;99.90
6375;DHT22;35400;45.472;-122.822;2023-03-11T03:53:42;6.60;99.90
6375;DHT22;35400;45.472;-122.822;2023-03-11T03:56:15;6.60;99.90
6375;DHT22;35400;45.472;-122.822;2023-03-11T03:58:43;6.60;99.90
6375;DHT22;35400;45.472;-122.822;2023-03-11T04:01:11;6.60;99.90
6375;DHT22;35400;45.472;-122.822;2023-03-11T04:03:39;6.60;99.90
6375;DHT22;35400;45.472;-122.822;2023-03-11T04:06:22;6.60;99.90
6375;DHT22;35400;45.472;-122.822;2023-03-11T04:08:55;6.60;99.90
6375;DHT22;35400;45.472;-122.822;2023-03-11T04:11:27;6.60;99.90
6375;DHT22;35400;45.472;-122.822;2023-03-11T04:13:54;6.60;99.90
6375;DHT22;35400;45.472;-122.822;2023-03-11T04:16:22;6.60;99.90
6375;DHT22;35400;45.472;-122.822;2023-03-11T04:18:51;6.60;99.90
6375;DHT22;35400;45.472;-122.822;2023-03-11T04:21:19;6.60;99.90
6375;DHT22;35400;45.472;-122.822;2023-03-11T04:23:47;6.60;99.90
6375;DHT22;35400;45.472;-122.822;2023-03-11T04:26:16;6.60;99.90
6375;DHT22;35400;45.472;-122.822;2023-03-11T04:28:43;6.60;99.90
6375;DHT22;35400;45.472;-122.822;2023-03-11T04:31:09;6.50;99.90
6375;DHT22;35400;45.472;-122.822;2023-03-11T04:33:38;6.60;99.90
6375;DHT22;35400;45.472;-122.822;2023-03-11T04:36:08;6.50;99.90
6375;DHT22;35400;45.472;-122.822;2023-03-11T04:38:37;6.50;99.90
6375;DHT22;35400;45.472;-122.822;2023-03-11T04:41:06;6.40;99.90
6375;DHT22;35400;45.472;-122.822;2023-03-11T04:43:37;6.40;99.90
6375;DHT22;35400;45.472;-122.822;2023-03-11T04:46:04;6.40;99.90
6375;DHT22;35400;45.472;-122.822;2023-03-11T04:48:31;6.40;99.90
6375;DHT22;35400;45.472;-122.822;2023-03-11T04:50:58;6.30;99.90
6375;DHT22;35400;45.472;-122.822;2023-03-11T04:53:26;6.30;99.90
6375;DHT22;35400;45.472;-122.822;2023-03-11T04:55:53;6.30;99.90
6375;DHT22;35400;45.472;-122.822;2023-03-11T04:58:20;6.20;99.90
6375;DHT22;35400;45.472;-122.822;2023-03-11T05:00:47;6.20;99.90
6375;DHT22;35400;45.472;-122.822;2023-03-11T05:03:15;6.10;99.90
6375;DHT22;35400;45.472;-122.822;2023-03-11T05:05:43;6.10;99.90
6375;DHT22;35400;45.472;-122.822;2023-03-11T05:08:11;6.10;99.90
6375;DHT22;35400;45.472;-122.822;2023-03-11T05:10:42;6.00;99.90
6375;DHT22;35400;45.472;-122.822;2023-03-11T05:13:10;6.00;99.90
6375;DHT22;35400;45.472;-122.822;2023-03-11T05:15:38;6.00;99.90
6375;DHT22;35400;45.472;-122.822;2023-03-11T05:18:06;5.90;99.90
6375;DHT22;35400;45.472;-122.822;2023-03-11T05:20:35;5.90;99.90
6375;DHT22;35400;45.472;-122.822;2023-03-11T05:23:03;5.90;99.90
6375;DHT22;35400;45.472;-122.822;2023-03-11T05:25:32;5.90;99.90
6375;DHT22;35400;45.472;-122.822;2023-03-11T05:27:59;5.90;99.90
6375;DHT22;35400;45.472;-122.822;2023-03-11T05:30:26;5.90;99.90
6375;DHT22;35400;45.472;-122.822;2023-03-11T05:32:54;5.90;99.90
6375;DHT22;35400;45.472;-122.822;2023-03-11T05:35:21;5.90;99.90
6375;DHT22;35400;45.472;-122.822;2023-03-11T05:37:48;5.90;99.90
6375;DHT22;35400;45.472;-122.822;2023-03-11T05:40:17;5.90;99.90
6375;DHT22;35400;45.472;-122.822;2023-03-11T05:42:44;5.90;99.90
6375;DHT22;35400;45.472;-122.822;2023-03-11T05:45:13;5.90;99.90
6375;DHT22;35400;45.472;-122.822;2023-03-11T05:47:43;5.90;99.90
6375;DHT22;35400;45.472;-122.822;2023-03-11T05:50:12;5.90;99.90
6375;DHT22;35400;45.472;-122.822;2023-03-11T05:52:40;6.00;99.90
6375;DHT22;35400;45.472;-122.822;2023-03-11T05:55:08;5.90;99.90
6375;DHT22;35400;45.472;-122.822;2023-03-11T05:57:39;6.00;99.90
6375;DHT22;35400;45.472;-122.822;2023-03-11T06:00:07;6.00;99.90
6375;DHT22;35400;45.472;-122.822;2023-03-11T06:02:42;6.00;99.90
6375;DHT22;35400;45.472;-122.822;2023-03-11T06:05:13;6.00;99.90
6375;DHT22;35400;45.472;-122.822;2023-03-11T06:07:41;6.00;99.90
6375;DHT22;35400;45.472;-122.822;2023-03-11T06:10:08;6.00;99.90
6375;DHT22;35400;45.472;-122.822;2023-03-11T06:12:35;6.00;99.90
6375;DHT22;35400;45.472;-122.822;2023-03-11T06:15:33;6.00;99.90
6375;DHT22;35400;45.472;-122.822;2023-03-11T06:18:00;6.00;99.90
6375;DHT22;35400;45.472;-122.822;2023-03-11T06:20:28;5.90;99.90
6375;DHT22;35400;45.472;-122.822;2023-03-11T06:22:55;6.00;99.90
6375;DHT22;35400;45.472;-122.822;2023-03-11T06:25:23;5.90;99.90
6375;DHT22;35400;45.472;-122.822;2023-03-11T06:27:52;5.90;99.90
6375;DHT22;35400;45.472;-122.822;2023-03-11T06:30:20;5.90;99.90
6375;DHT22;35400;45.472;-122.822;2023-03-11T06:32:55;5.90;99.90
6375;DHT22;35400;45.472;-122.822;2023-03-11T06:35:22;5.80;99.90
6375;DHT22;35400;45.472;-122.822;2023-03-11T06:37:49;5.80;99.90
6375;DHT22;35400;45.472;-122.822;2023-03-11T06:40:16;5.80;99.90
6375;DHT22;35400;45.472;-122.822;2023-03-11T06:42:46;5.70;99.90
6375;DHT22;35400;45.472;-122.822;2023-03-11T06:45:14;5.70;99.90
6375;DHT22;35400;45.472;-122.822;2023-03-11T06:47:42;5.60;99.90
6375;DHT22;35400;45.472;-122.822;2023-03-11T06:50:10;5.60;99.90
6375;DHT22;35400;45.472;-122.822;2023-03-11T06:52:37;5.60;99.90
6375;DHT22;35400;45.472;-122.822;2023-03-11T06:55:07;5.50;99.90
6375;DHT22;35400;45.472;-122.822;2023-03-11T06:57:34;5.50;99.90
6375;DHT22;35400;45.472;-122.822;2023-03-11T07:00:04;5.50;99.90
6375;DHT22;35400;45.472;-122.822;2023-03-11T07:02:35;5.50;99.90
6375;DHT22;35400;45.472;-122.822;2023-03-11T07:05:02;5.40;99.90
6375;DHT22;35400;45.472;-122.822;2023-03-11T07:07:30;5.40;99.90
6375;DHT22;35400;45.472;-122.822;2023-03-11T07:09:56;5.40;99.90
6375;DHT22;35400;45.472;-122.822;2023-03-11T07:12:23;5.40;99.90
6375;DHT22;35400;45.472;-122.822;2023-03-11T07:14:58;5.40;99.90
6375;DHT22;35400;45.472;-122.822;2023-03-11T07:17:27;5.40;99.90
6375;DHT22;35400;45.472;-122.822;2023-03-11T07:19:53;5.30;99.90
6375;DHT22;35400;45.472;-122.822;2023-03-11T07:22:20;5.30;99.90
6375;DHT22;35400;45.472;-122.822;2023-03-11T07:24:48;5.30;99.90
6375;DHT22;35400;45.472;-122.822;2023-03-11T07:27:15;5.20;99.90
6375;DHT22;35400;45.472;-122.822;2023-03-11T07:29:42;5.20;99.90
6375;DHT22;35400;45.472;-122.822;2023-03-11T07:32:09;5.20;99.90
6375;DHT22;35400;45.472;-122.822;2023-03-11T07:34:36;5.20;99.90
6375;DHT22;35400;45.472;-122.822;2023-03-11T07:37:03;5.20;99.90
6375;DHT22;35400;45.472;-122.822;2023-03-11T07:39:30;5.30;99.90
6375;DHT22;35400;45.472;-122.822;2023-03-11T07:41:57;5.30;99.90
6375;DHT22;35400;45.472;-122.822;2023-03-11T07:44:33;5.30;99.90
6375;DHT22;35400;45.472;-122.822;2023-03-11T07:47:04;5.30;99.90
6375;DHT22;35400;45.472;-122.822;2023-03-11T07:49:32;5.30;99.90
6375;DHT22;35400;45.472;-122.822;2023-03-11T07:51:59;5.30;99.90
6375;DHT22;35400;45.472;-122.822;2023-03-11T07:54:26;5.40;99.90
6375;DHT22;35400;45.472;-122.822;2023-03-11T07:56:53;5.40;99.90
6375;DHT22;35400;45.472;-122.822;2023-03-11T07:59:19;5.40;99.90
6375;DHT22;35400;45.472;-122.822;2023-03-11T08:01:46;5.40;99.90
6375;DHT22;35400;45.472;-122.822;2023-03-11T08:04:14;5.40;99.90
6375;DHT22;35400;45.472;-122.822;2023-03-11T08:06:44;5.50;99.90
6375;DHT22;35400;45.472;-122.822;2023-03-11T08:09:12;5.50;99.90
6375;DHT22;35400;45.472;-122.822;2023-03-11T08:11:39;5.50;99.90
6375;DHT22;35400;45.472;-122.822;2023-03-11T08:14:06;5.50;99.90
6375;DHT22;35400;45.472;-122.822;2023-03-11T08:16:33;5.50;99.90
6375;DHT22;35400;45.472;-122.822;2023-03-11T08:19:00;5.60;99.90
6375;DHT22;35400;45.472;-122.822;2023-03-11T08:21:29;5.60;99.90
6375;DHT22;35400;45.472;-122.822;2023-03-11T08:23:59;5.60;99.90
6375;DHT22;35400;45.472;-122.822;2023-03-11T08:26:26;5.60;99.90
6375;DHT22;35400;45.472;-122.822;2023-03-11T08:28:54;5.60;99.90
6375;DHT22;35400;45.472;-122.822;2023-03-11T08:31:27;5.60;99.90
6375;DHT22;35400;45.472;-122.822;2023-03-11T08:34:00;5.60;99.90
6375;DHT22;35400;45.472;-122.822;2023-03-11T08:36:27;5.60;99.90
6375;DHT22;35400;45.472;-122.822;2023-03-11T08:38:54;5.60;99.90
6375;DHT22;35400;45.472;-122.822;2023-03-11T08:41:21;5.60;99.90
6375;DHT22;35400;45.472;-122.822;2023-03-11T08:43:48;5.60;99.90
6375;DHT22;35400;45.472;-122.822;2023-03-11T08:46:29;5.50;99.90
6375;DHT22;35400;45.472;-122.822;2023-03-11T08:48:57;5.60;99.90
6375;DHT22;35400;45.472;-122.822;2023-03-11T08:51:25;5.50;99.90
6375;DHT22;35400;45.472;-122.822;2023-03-11T08:53:52;5.50;99.90
6375;DHT22;35400;45.472;-122.822;2023-03-11T08:56:19;5.50;99.90
6375;DHT22;35400;45.472;-122.822;2023-03-11T08:58:46;5.40;99.90
6375;DHT22;35400;45.472;-122.822;2023-03-11T09:01:14;5.40;99.90
6375;DHT22;35400;45.472;-122.822;2023-03-11T09:03:41;5.40;99.90
6375;DHT22;35400;45.472;-122.822;2023-03-11T09:06:12;5.40;99.90
6375;DHT22;35400;45.472;-122.822;2023-03-11T09:08:42;5.30;99.90
6375;DHT22;35400;45.472;-122.822;2023-03-11T09:11:09;5.30;99.90
6375;DHT22;35400;45.472;-122.822;2023-03-11T09:13:39;5.20;99.90
6375;DHT22;35400;45.472;-122.822;2023-03-11T09:16:14;5.30;99.90
6375;DHT22;35400;45.472;-122.822;2023-03-11T09:18:41;5.20;99.90
6375;DHT22;35400;45.472;-122.822;2023-03-11T09:21:09;5.10;99.90
6375;DHT22;35400;45.472;-122.822;2023-03-11T09:23:36;5.10;99.90
6375;DHT22;35400;45.472;-122.822;2023-03-11T09:26:03;5.10;99.90
6375;DHT22;35400;45.472;-122.822;2023-03-11T09:28:30;5.00;99.90
6375;DHT22;35400;45.472;-122.822;2023-03-11T09:30:57;5.00;99.90
6375;DHT22;35400;45.472;-122.822;2023-03-11T09:33:24;5.00;99.90
6375;DHT22;35400;45.472;-122.822;2023-03-11T09:35:51;4.90;99.90
6375;DHT22;35400;45.472;-122.822;2023-03-11T09:38:18;4.90;99.90
6375;DHT22;35400;45.472;-122.822;2023-03-11T09:46:26;4.80;99.90
6375;DHT22;35400;45.472;-122.822;2023-03-11T09:51:52;4.70;99.90
6375;DHT22;35400;45.472;-122.822;2023-03-11T09:54:23;4.60;99.90
6375;DHT22;35400;45.472;-122.822;2023-03-11T09:56:50;4.60;99.90
6375;DHT22;35400;45.472;-122.822;2023-03-11T09:59:30;4.50;99.90
6375;DHT22;35400;45.472;-122.822;2023-03-11T10:01:58;4.50;99.90
6375;DHT22;35400;45.472;-122.822;2023-03-11T10:05:08;4.40;99.90
6375;DHT22;35400;45.472;-122.822;2023-03-11T10:07:44;4.30;99.90
6375;DHT22;35400;45.472;-122.822;2023-03-11T10:10:13;4.30;99.90
6375;DHT22;35400;45.472;-122.822;2023-03-11T10:13:14;4.20;99.90
6375;DHT22;35400;45.472;-122.822;2023-03-11T10:16:05;4.10;99.90
6375;DHT22;35400;45.472;-122.822;2023-03-11T10:18:51;4.10;99.90
6375;DHT22;35400;45.472;-122.822;2023-03-11T10:21:40;4.00;99.90
6375;DHT22;35400;45.472;-122.822;2023-03-11T10:27:18;3.90;99.90
6375;DHT22;35400;45.472;-122.822;2023-03-11T10:35:22;3.90;99.90
6375;DHT22;35400;45.472;-122.822;2023-03-11T10:38:04;3.90;99.90
6375;DHT22;35400;45.472;-122.822;2023-03-11T10:40:39;3.90;99.90
6375;DHT22;35400;45.472;-122.822;2023-03-11T10:43:16;4.00;99.90
6375;DHT22;35400;45.472;-122.822;2023-03-11T10:45:45;4.00;99.90
6375;DHT22;35400;45.472;-122.822;2023-03-11T10:48:16;4.00;99.90
6375;DHT22;35400;45.472;-122.822;2023-03-11T10:53:20;4.10;99.90
6375;DHT22;35400;45.472;-122.822;2023-03-11T10:55:53;4.10;99.90
6375;DHT22;35400;45.472;-122.822;2023-03-11T10:58:29;4.10;99.90
6375;DHT22;35400;45.472;-122.822;2023-03-11T11:01:03;4.20;99.90
6375;DHT22;35400;45.472;-122.822;2023-03-11T11:03:32;4.20;99.90
6375;DHT22;35400;45.472;-122.822;2023-03-11T11:06:05;4.20;99.90
6375;DHT22;35400;45.472;-122.822;2023-03-11T11:08:33;4.30;99.90
6375;DHT22;35400;45.472;-122.822;2023-03-11T11:11:02;4.30;99.90
6375;DHT22;35400;45.472;-122.822;2023-03-11T11:13:32;4.30;99.90
6375;DHT22;35400;45.472;-122.822;2023-03-11T11:16:18;4.30;99.90
6375;DHT22;35400;45.472;-122.822;2023-03-11T11:21:37;4.40;99.90
6375;DHT22;35400;45.472;-122.822;2023-03-11T11:24:22;4.40;99.90
6375;DHT22;35400;45.472;-122.822;2023-03-11T11:27:16;4.40;99.90
6375;DHT22;35400;45.472;-122.822;2023-03-11T11:29:44;4.40;99.90
6375;DHT22;35400;45.472;-122.822;2023-03-11T11:32:16;4.40;99.90
6375;DHT22;35400;45.472;-122.822;2023-03-11T11:37:29;4.50;99.90
6375;DHT22;35400;45.472;-122.822;2023-03-11T11:42:40;4.50;99.90
6375;DHT22;35400;45.472;-122.822;2023-03-11T11:45:38;4.50;99.90
6375;DHT22;35400;45.472;-122.822;2023-03-11T11:48:23;4.50;99.90
6375;DHT22;35400;45.472;-122.822;2023-03-11T11:50:59;4.50;99.90
6375;DHT22;35400;45.472;-122.822;2023-03-11T11:53:41;4.50;99.90
6375;DHT22;35400;45.472;-122.822;2023-03-11T11:56:09;4.60;99.90
6375;DHT22;35400;45.472;-122.822;2023-03-11T11:58:36;4.60;99.90
6375;DHT22;35400;45.472;-122.822;2023-03-11T12:01:17;4.60;99.90
6375;DHT22;35400;45.472;-122.822;2023-03-11T12:09:46;4.70;99.90
6375;DHT22;35400;45.472;-122.822;2023-03-11T12:17:36;4.60;99.90
6375;DHT22;35400;45.472;-122.822;2023-03-11T12:20:41;4.60;99.90
6375;DHT22;35400;45.472;-122.822;2023-03-11T12:31:16;4.50;99.90
6375;DHT22;35400;45.472;-122.822;2023-03-11T12:33:47;4.50;99.90
6375;DHT22;35400;45.472;-122.822;2023-03-11T12:36:23;4.40;99.90
6375;DHT22;35400;45.472;-122.822;2023-03-11T12:38:51;4.40;99.90
6375;DHT22;35400;45.472;-122.822;2023-03-11T12:41:39;4.40;99.90
6375;DHT22;35400;45.472;-122.822;2023-03-11T12:44:25;4.40;99.90
6375;DHT22;35400;45.472;-122.822;2023-03-11T12:49:32;4.40;99.90
6375;DHT22;35400;45.472;-122.822;2023-03-11T12:52:21;4.40;99.90
6375;DHT22;35400;45.472;-122.822;2023-03-11T12:55:34;4.40;99.90
6375;DHT22;35400;45.472;-122.822;2023-03-11T12:57:46;4.30;99.90
6375;DHT22;35400;45.472;-122.822;2023-03-11T13:08:35;4.40;99.90
6375;DHT22;35400;45.472;-122.822;2023-03-11T13:16:42;4.30;99.90
6375;DHT22;35400;45.472;-122.822;2023-03-11T13:22:00;4.40;99.90
6375;DHT22;35400;45.472;-122.822;2023-03-11T13:32:52;4.30;99.90
6375;DHT22;35400;45.472;-122.822;2023-03-11T13:35:52;4.30;99.90
6375;DHT22;35400;45.472;-122.822;2023-03-11T13:41:23;4.40;99.90
6375;DHT22;35400;45.472;-122.822;2023-03-11T13:43:54;4.40;99.90
6375;DHT22;35400;45.472;-122.822;2023-03-11T13:46:42;4.40;99.90
6375;DHT22;35400;45.472;-122.822;2023-03-11T13:51:53;4.40;99.90
6375;DHT22;35400;45.472;-122.822;2023-03-11T13:57:04;4.40;99.90
6375;DHT22;35400;45.472;-122.822;2023-03-11T13:59:34;4.50;99.90
6375;DHT22;35400;45.472;-122.822;2023-03-11T14:04:36;4.50;99.90
6375;DHT22;35400;45.472;-122.822;2023-03-11T14:07:33;4.50;99.90
6375;DHT22;35400;45.472;-122.822;2023-03-11T14:10:18;4.50;99.90
6375;DHT22;35400;45.472;-122.822;2023-03-11T14:12:45;4.50;99.90
6375;DHT22;35400;45.472;-122.822;2023-03-11T14:15:19;4.50;99.90
6375;DHT22;35400;45.472;-122.822;2023-03-11T14:17:46;4.40;99.90
6375;DHT22;35400;45.472;-122.822;2023-03-11T14:20:15;4.40;99.90
6375;DHT22;35400;45.472;-122.822;2023-03-11T14:22:45;4.40;99.90
6375;DHT22;35400;45.472;-122.822;2023-03-11T14:25:24;4.40;99.90
6375;DHT22;35400;45.472;-122.822;2023-03-11T14:28:03;4.30;99.90
6375;DHT22;35400;45.472;-122.822;2023-03-11T14:30:32;4.20;99.90
6375;DHT22;35400;45.472;-122.822;2023-03-11T14:33:19;4.20;99.90
6375;DHT22;35400;45.472;-122.822;2023-03-11T14:35:57;4.10;99.90
6375;DHT22;35400;45.472;-122.822;2023-03-11T14:38:27;4.10;99.90
6375;DHT22;35400;45.472;-122.822;2023-03-11T14:40:59;4.10;99.90
6375;DHT22;35400;45.472;-122.822;2023-03-11T14:43:39;4.00;99.90
6375;DHT22;35400;45.472;-122.822;2023-03-11T14:46:10;4.00;99.90
6375;DHT22;35400;45.472;-122.822;2023-03-11T14:48:42;3.90;99.90
6375;DHT22;35400;45.472;-122.822;2023-03-11T14:51:16;3.90;99.90
6375;DHT22;35400;45.472;-122.822;2023-03-11T14:54:04;3.90;99.90
6375;DHT22;35400;45.472;-122.822;2023-03-11T14:56:35;3.90;99.90
6375;DHT22;35400;45.472;-122.822;2023-03-11T14:59:14;3.90;99.90
6375;DHT22;35400;45.472;-122.822;2023-03-11T15:01:43;3.90;99.90
6375;DHT22;35400;45.472;-122.822;2023-03-11T15:04:32;3.90;99.90
6375;DHT22;35400;45.472;-122.822;2023-03-11T15:07:00;3.90;99.90
6375;DHT22;35400;45.472;-122.822;2023-03-11T15:09:29;3.90;99.90
6375;DHT22;35400;45.472;-122.822;2023-03-11T15:11:59;3.90;99.90
6375;DHT22;35400;45.472;-122.822;2023-03-11T15:14:28;3.90;99.90
6375;DHT22;35400;45.472;-122.822;2023-03-11T15:17:18;4.00;99.90
6375;DHT22;35400;45.472;-122.822;2023-03-11T15:19:57;4.10;99.90
6375;DHT22;35400;45.472;-122.822;2023-03-11T15:24:58;4.30;99.90
6375;DHT22;35400;45.472;-122.822;2023-03-11T15:27:37;4.40;99.90
6375;DHT22;35400;45.472;-122.822;2023-03-11T15:30:29;4.60;99.90
6375;DHT22;35400;45.472;-122.822;2023-03-11T15:32:57;4.80;99.90
6375;DHT22;35400;45.472;-122.822;2023-03-11T15:35:28;4.90;99.90
6375;DHT22;35400;45.472;-122.822;2023-03-11T15:38:23;5.10;99.90
6375;DHT22;35400;45.472;-122.822;2023-03-11T15:41:00;5.20;99.90
6375;DHT22;35400;45.472;-122.822;2023-03-11T15:43:33;5.30;99.90
6375;DHT22;35400;45.472;-122.822;2023-03-11T15:46:02;5.40;99.90
6375;DHT22;35400;45.472;-122.822;2023-03-11T15:48:29;5.40;99.90
6375;DHT22;35400;45.472;-122.822;2023-03-11T15:50:58;5.50;99.90
6375;DHT22;35400;45.472;-122.822;2023-03-11T15:53:26;5.50;99.90
6375;DHT22;35400;45.472;-122.822;2023-03-11T15:55:57;5.60;99.90
6375;DHT22;35400;45.472;-122.822;2023-03-11T15:58:24;5.70;99.90
6375;DHT22;35400;45.472;-122.822;2023-03-11T16:00:55;5.70;99.90
6375;DHT22;35400;45.472;-122.822;2023-03-11T16:03:23;5.80;99.90
6375;DHT22;35400;45.472;-122.822;2023-03-11T16:05:50;6.00;99.90
6375;DHT22;35400;45.472;-122.822;2023-03-11T16:08:17;6.20;99.90
6375;DHT22;35400;45.472;-122.822;2023-03-11T16:10:44;6.40;99.90
6375;DHT22;35400;45.472;-122.822;2023-03-11T16:13:12;6.60;99.90
6375;DHT22;35400;45.472;-122.822;2023-03-11T16:15:40;6.70;99.90
6375;DHT22;35400;45.472;-122.822;2023-03-11T16:18:08;6.80;99.90
6375;DHT22;35400;45.472;-122.822;2023-03-11T16:20:45;6.90;99.90
6375;DHT22;35400;45.472;-122.822;2023-03-11T16:23:23;6.90;99.90
6375;DHT22;35400;45.472;-122.822;2023-03-11T16:25:52;7.00;99.90
6375;DHT22;35400;45.472;-122.822;2023-03-11T16:28:21;7.00;99.90
6375;DHT22;35400;45.472;-122.822;2023-03-11T16:30:49;7.10;99.90
6375;DHT22;35400;45.472;-122.822;2023-03-11T16:33:16;7.20;99.90
6375;DHT22;35400;45.472;-122.822;2023-03-11T16:35:43;7.20;99.90
6375;DHT22;35400;45.472;-122.822;2023-03-11T16:38:10;7.30;99.90
6375;DHT22;35400;45.472;-122.822;2023-03-11T16:40:37;7.30;99.90
6375;DHT22;35400;45.472;-122.822;2023-03-11T16:43:09;7.40;99.90
6375;DHT22;35400;45.472;-122.822;2023-03-11T16:45:37;7.40;99.90
6375;DHT22;35400;45.472;-122.822;2023-03-11T16:48:04;7.50;99.90
6375;DHT22;35400;45.472;-122.822;2023-03-11T16:50:32;7.50;99.90
6375;DHT22;35400;45.472;-122.822;2023-03-11T16:52:58;7.60;99.90
6375;DHT22;35400;45.472;-122.822;2023-03-11T16:55:26;7.60;99.90
6375;DHT22;35400;45.472;-122.822;2023-03-11T16:57:54;7.70;99.90
6375;DHT22;35400;45.472;-122.822;2023-03-11T17:00:23;7.80;99.90
6375;DHT22;35400;45.472;-122.822;2023-03-11T17:02:50;7.80;99.90
6375;DHT22;35400;45.472;-122.822;2023-03-11T17:05:17;7.80;99.90
6375;DHT22;35400;45.472;-122.822;2023-03-11T17:07:44;7.90;99.90
6375;DHT22;35400;45.472;-122.822;2023-03-11T17:10:11;7.90;99.90